createdAt,value
2023-03-17T00:01:56.809Z,2.20
2023-03-17T00:04:26.776Z,2.80
2023-03-17T00:06:55.091Z,2.83
2023-03-17T00:09:22.646Z,2.40
2023-03-17T00:11:50.185Z,2.37
2023-03-17T00:14:19.585Z,2.10
2023-03-17T00:16:51.062Z,2.40
2023-03-17T00:19:31.441Z,2.20
2023-03-17T00:22:25.922Z,2.53
2023-03-17T00:25:33.063Z,2.67
2023-03-17T00:28:03.523Z,2.40
2023-03-17T00:30:32.247Z,2.80
2023-03-17T00:32:59.561Z,2.73
2023-03-17T00:35:29.635Z,2.67
2023-03-17T00:37:58.024Z,2.47
2023-03-17T00:40:30.912Z,2.70
2023-03-17T00:43:06.372Z,2.53
2023-03-17T00:45:33.376Z,2.73
2023-03-17T00:48:00.903Z,2.70
2023-03-17T00:50:32.855Z,2.57
2023-03-17T00:53:02.198Z,2.60
2023-03-17T00:55:30.652Z,2.53
2023-03-17T00:57:58.065Z,2.67
2023-03-17T01:00:35.525Z,2.60
2023-03-17T01:03:03.681Z,2.80
2023-03-17T01:05:30.829Z,2.20
2023-03-17T01:07:59.042Z,2.17
2023-03-17T01:10:29.264Z,2.50
2023-03-17T01:12:59.142Z,2.37
2023-03-17T01:15:33.812Z,2.40
2023-03-17T01:18:02.787Z,2.37
2023-03-17T01:20:34.611Z,2.57
2023-03-17T01:23:02.509Z,2.50
2023-03-17T01:25:30.063Z,2.50
2023-03-17T01:27:59.345Z,2.07
2023-03-17T01:30:32.819Z,2.30
2023-03-17T01:33:00.621Z,2.23
2023-03-17T01:35:29.476Z,2.20
2023-03-17T01:37:57.398Z,2.50
2023-03-17T01:40:30.689Z,2.00
2023-03-17T01:43:23.137Z,2.50
2023-03-17T01:46:29.417Z,2.27
2023-03-17T01:49:17.925Z,2.37
2023-03-17T01:52:09.202Z,2.60
2023-03-17T01:55:06.303Z,2.70
2023-03-17T01:57:39.720Z,2.10
2023-03-17T02:00:26.386Z,2.43
2023-03-17T02:02:56.845Z,2.97
2023-03-17T02:05:31.108Z,2.93
2023-03-17T02:07:59.095Z,2.70
2023-03-17T02:10:30.278Z,2.80
2023-03-17T02:13:03.970Z,2.87
2023-03-17T02:15:53.125Z,2.97
2023-03-17T02:18:23.652Z,2.50
2023-03-17T02:20:50.868Z,2.80
2023-03-17T02:23:23.413Z,3.20
2023-03-17T02:25:54.066Z,2.90
2023-03-17T02:28:31.028Z,2.57
2023-03-17T02:30:58.052Z,2.77
2023-03-17T02:33:25.313Z,2.67
2023-03-17T02:35:55.537Z,2.37
2023-03-17T02:38:22.522Z,2.60
2023-03-17T02:40:51.472Z,2.90
2023-03-17T02:43:19.191Z,2.57
2023-03-17T02:45:46.296Z,2.53
2023-03-17T02:48:14.016Z,3.27
2023-03-17T02:50:41.869Z,2.93
2023-03-17T02:53:09.362Z,2.33
2023-03-17T02:55:36.715Z,3.20
2023-03-17T02:58:03.855Z,3.13
2023-03-17T03:00:31.711Z,2.67
2023-03-17T03:02:58.881Z,2.60
2023-03-17T03:05:26.745Z,2.40
2023-03-17T03:07:53.809Z,2.70
2023-03-17T03:10:21.423Z,2.60
2023-03-17T03:12:48.492Z,2.77
2023-03-17T03:15:15.718Z,2.50
2023-03-17T03:17:42.688Z,2.77
2023-03-17T03:20:11.573Z,2.10
2023-03-17T03:22:39.015Z,2.50
2023-03-17T03:25:08.681Z,2.30
2023-03-17T03:27:36.094Z,1.93
2023-03-17T03:30:04.364Z,2.30
2023-03-17T03:32:31.704Z,2.30
2023-03-17T03:34:58.705Z,2.10
2023-03-17T03:37:26.048Z,2.27
2023-03-17T03:39:52.984Z,2.07
2023-03-17T03:42:19.996Z,2.23
2023-03-17T03:44:47.146Z,2.30
2023-03-17T03:47:14.120Z,2.13
2023-03-17T03:49:41.407Z,2.43
2023-03-17T03:52:09.230Z,2.13
2023-03-17T03:54:36.616Z,1.90
2023-03-17T03:57:03.651Z,2.20
2023-03-17T03:59:30.770Z,2.23
2023-03-17T04:01:57.855Z,2.47
2023-03-17T04:04:26.743Z,2.10
2023-03-17T04:06:53.775Z,1.97
2023-03-17T04:09:21.062Z,1.80
2023-03-17T04:11:48.947Z,2.00
2023-03-17T04:14:15.991Z,1.83
2023-03-17T04:16:43.717Z,2.20
2023-03-17T04:19:11.292Z,2.40
2023-03-17T04:21:38.329Z,2.10
2023-03-17T04:24:05.963Z,2.30
2023-03-17T04:26:33.118Z,2.40
2023-03-17T04:29:00.300Z,2.30
2023-03-17T04:31:27.503Z,2.50
2023-03-17T04:33:54.625Z,2.67
2023-03-17T04:36:24.081Z,2.77
2023-03-17T04:38:51.132Z,2.60
2023-03-17T04:41:18.333Z,2.77
2023-03-17T04:43:46.188Z,2.67
2023-03-17T04:46:14.053Z,2.70
2023-03-17T04:48:42.985Z,2.80
2023-03-17T04:51:11.779Z,2.10
2023-03-17T04:53:39.229Z,2.87
2023-03-17T04:56:07.673Z,2.57
2023-03-17T04:58:34.739Z,2.77
2023-03-17T05:01:02.544Z,2.63
2023-03-17T05:03:31.623Z,3.07
2023-03-17T05:05:59.838Z,2.80
2023-03-17T05:08:28.437Z,2.73
2023-03-17T05:10:57.369Z,2.60
2023-03-17T05:13:26.119Z,2.47
2023-03-17T05:15:55.278Z,2.67
2023-03-17T05:18:25.535Z,2.80
2023-03-17T05:20:52.669Z,2.50
2023-03-17T05:23:19.872Z,2.90
2023-03-17T05:25:48.268Z,2.50
2023-03-17T05:28:15.759Z,2.90
2023-03-17T05:30:43.661Z,3.27
2023-03-17T05:33:10.744Z,2.50
2023-03-17T05:35:37.972Z,2.77
2023-03-17T05:38:04.978Z,2.97
2023-03-17T05:40:32.743Z,2.93
2023-03-17T05:42:59.955Z,2.63
2023-03-17T05:45:27.027Z,2.50
2023-03-17T05:47:54.039Z,2.13
2023-03-17T05:50:21.544Z,2.70
2023-03-17T05:52:49.075Z,2.40
2023-03-17T05:55:17.388Z,2.20
2023-03-17T05:57:44.620Z,2.77
2023-03-17T06:00:13.997Z,2.63
2023-03-17T06:02:43.037Z,2.13
2023-03-17T06:05:10.536Z,2.70
2023-03-17T06:07:50.738Z,2.60
2023-03-17T06:10:19.168Z,2.40
2023-03-17T06:12:46.192Z,2.33
2023-03-17T06:15:13.273Z,2.53
2023-03-17T06:17:43.088Z,2.50
2023-03-17T06:20:11.820Z,2.77
2023-03-17T06:22:51.690Z,2.50
2023-03-17T06:25:27.291Z,2.20
2023-03-17T06:27:56.196Z,2.60
2023-03-17T06:30:23.285Z,2.80
2023-03-17T06:32:50.507Z,2.70
2023-03-17T06:35:18.148Z,2.53
2023-03-17T06:37:45.250Z,2.70
2023-03-17T06:40:13.366Z,2.70
2023-03-17T06:42:41.325Z,2.77
2023-03-17T06:45:09.427Z,2.50
2023-03-17T06:47:37.426Z,2.37
2023-03-17T06:50:06.348Z,2.60
2023-03-17T06:52:33.414Z,2.80
2023-03-17T06:55:00.636Z,2.33
2023-03-17T06:57:28.085Z,2.37
2023-03-17T06:59:55.403Z,2.60
2023-03-17T07:02:23.068Z,2.60
2023-03-17T07:04:50.702Z,2.67
2023-03-17T07:07:19.594Z,2.60
2023-03-17T07:09:47.791Z,2.47
2023-03-17T07:12:15.846Z,2.43
2023-03-17T07:14:42.872Z,2.40
2023-03-17T07:17:15.103Z,2.60
2023-03-17T07:19:43.737Z,2.40
2023-03-17T07:22:15.464Z,2.73
2023-03-17T07:24:43.545Z,2.10
2023-03-17T07:27:11.106Z,2.67
2023-03-17T07:29:38.204Z,2.50
2023-03-17T07:32:07.305Z,2.33
2023-03-17T07:34:35.839Z,2.60
2023-03-17T07:37:04.287Z,2.50
2023-03-17T07:39:31.540Z,2.73
2023-03-17T07:41:58.744Z,2.53
2023-03-17T07:44:26.001Z,2.43
2023-03-17T07:46:53.092Z,2.63
2023-03-17T07:49:38.042Z,2.17
2023-03-17T07:52:09.662Z,2.13
2023-03-17T07:54:37.688Z,2.10
2023-03-17T07:57:06.417Z,2.33
2023-03-17T07:59:34.294Z,2.20
2023-03-17T08:02:01.872Z,2.17
2023-03-17T08:04:29.333Z,2.27
2023-03-17T08:06:57.680Z,2.40
2023-03-17T08:09:25.248Z,2.30
2023-03-17T08:11:52.288Z,2.17
2023-03-17T08:14:19.729Z,2.20
2023-03-17T08:16:47.614Z,2.20
2023-03-17T08:19:14.765Z,2.47
2023-03-17T08:21:42.807Z,2.23
2023-03-17T08:24:10.013Z,2.27
2023-03-17T08:26:37.704Z,2.20
2023-03-17T08:29:05.415Z,2.30
2023-03-17T08:31:34.016Z,2.13
2023-03-17T08:34:03.390Z,2.33
2023-03-17T08:36:30.759Z,2.43
2023-03-17T08:38:57.910Z,2.37
2023-03-17T08:41:28.218Z,2.40
2023-03-17T08:43:56.170Z,2.23
2023-03-17T08:46:27.616Z,2.00
2023-03-17T08:48:58.093Z,2.23
2023-03-17T08:51:32.290Z,2.40
2023-03-17T08:53:59.758Z,2.43
2023-03-17T08:56:27.686Z,2.30
2023-03-17T08:58:56.193Z,2.20
2023-03-17T09:01:24.545Z,2.17
2023-03-17T09:03:54.814Z,2.20
2023-03-17T09:06:22.973Z,2.17
2023-03-17T09:08:55.417Z,2.30
2023-03-17T09:11:30.272Z,1.90
2023-03-17T09:13:57.405Z,2.10
2023-03-17T09:16:25.726Z,2.72
2023-03-17T09:18:53.773Z,2.35
2023-03-17T09:21:21.428Z,1.90
2023-03-17T09:23:48.587Z,2.40
2023-03-17T09:26:15.936Z,2.08
2023-03-17T09:28:45.058Z,2.03
2023-03-17T09:31:13.273Z,2.20
2023-03-17T09:33:42.450Z,2.22
2023-03-17T09:36:10.942Z,2.30
2023-03-17T09:38:40.370Z,2.05
2023-03-17T09:41:34.276Z,2.25
2023-03-17T09:44:14.497Z,2.13
2023-03-17T09:47:22.773Z,2.17
2023-03-17T09:49:57.385Z,1.98
2023-03-17T09:52:37.587Z,2.05
2023-03-17T09:55:08.785Z,2.10
2023-03-17T09:57:39.867Z,2.13
2023-03-17T10:00:14.748Z,2.03
2023-03-17T10:02:44.094Z,2.00
2023-03-17T10:05:20.920Z,1.88
2023-03-17T10:08:29.997Z,1.50
2023-03-17T10:11:24.306Z,1.83
2023-03-17T10:13:57.989Z,2.00
2023-03-17T10:16:50.177Z,2.00
2023-03-17T10:19:44.243Z,1.90
2023-03-17T10:22:26.459Z,1.95
2023-03-17T10:25:03.873Z,1.85
2023-03-17T10:27:37.336Z,2.30
2023-03-17T10:30:18.281Z,1.75
2023-03-17T10:32:47.145Z,2.05
2023-03-17T10:35:17.229Z,2.17
2023-03-17T10:37:47.518Z,1.90
2023-03-17T10:40:28.707Z,2.00
2023-03-17T10:43:07.849Z,2.03
2023-03-17T10:45:54.744Z,2.05
2023-03-17T10:48:21.958Z,2.20
2023-03-17T10:50:49.695Z,1.80
2023-03-17T10:53:29.317Z,1.90
2023-03-17T10:56:09.770Z,1.92
2023-03-17T10:58:41.864Z,1.80
2023-03-17T11:01:20.636Z,2.03
2023-03-17T11:03:49.720Z,1.60
2023-03-17T11:06:34.035Z,1.73
2023-03-17T11:09:09.592Z,1.90
2023-03-17T11:11:46.960Z,1.55
2023-03-17T11:14:20.855Z,1.90
2023-03-17T11:17:17.551Z,2.00
2023-03-17T11:20:01.775Z,1.77
2023-03-17T11:22:41.040Z,1.90
2023-03-17T11:25:19.553Z,1.63
2023-03-17T11:28:16.859Z,1.80
2023-03-17T11:30:58.054Z,1.63
2023-03-17T11:33:40.975Z,1.58
2023-03-17T11:36:56.723Z,1.90
2023-03-17T11:40:14.628Z,1.60
2023-03-17T11:42:44.717Z,1.65
2023-03-17T11:45:30.604Z,1.67
2023-03-17T11:48:23.770Z,1.80
2023-03-17T11:51:21.076Z,2.08
2023-03-17T11:54:18.962Z,1.88
2023-03-17T11:56:54.330Z,1.77
2023-03-17T11:59:47.513Z,1.70
2023-03-17T12:02:27.337Z,1.75
2023-03-17T12:05:17.769Z,1.90
2023-03-17T12:08:06.610Z,1.80
2023-03-17T12:10:46.830Z,1.63
2023-03-17T12:13:31.079Z,1.92
2023-03-17T12:16:26.345Z,1.67
2023-03-17T12:19:13.419Z,1.88
2023-03-17T12:22:01.234Z,2.03
2023-03-17T12:24:50.517Z,1.88
2023-03-17T12:27:32.692Z,1.60
2023-03-17T12:30:25.300Z,1.90
2023-03-17T12:33:14.393Z,2.00
2023-03-17T12:35:44.620Z,1.65
2023-03-17T12:38:23.280Z,1.65
2023-03-17T12:41:15.494Z,1.50
2023-03-17T12:44:06.723Z,1.65
2023-03-17T12:46:53.603Z,1.88
2023-03-17T12:49:33.913Z,1.60
2023-03-17T12:52:32.960Z,1.75
2023-03-17T12:55:09.656Z,1.70
2023-03-17T12:57:47.917Z,1.63
2023-03-17T13:00:31.840Z,1.90
2023-03-17T13:03:15.960Z,2.10
2023-03-17T13:05:50.008Z,1.80
2023-03-17T13:08:31.477Z,1.63
2023-03-17T13:11:18.982Z,1.70
2023-03-17T13:13:55.176Z,1.73
2023-03-17T13:16:52.842Z,2.03
2023-03-17T13:19:24.407Z,1.73
2023-03-17T13:22:04.831Z,1.75
2023-03-17T13:24:42.706Z,1.60
2023-03-17T13:27:32.078Z,1.65
2023-03-17T13:30:22.550Z,2.15
2023-03-17T13:33:12.109Z,1.75
2023-03-17T13:36:05.405Z,1.90
2023-03-17T13:38:35.519Z,1.70
2023-03-17T13:41:34.344Z,1.80
2023-03-17T13:44:50.354Z,1.73
2023-03-17T13:47:36.044Z,1.88
2023-03-17T13:50:31.456Z,1.65
2023-03-17T13:53:07.974Z,1.73
2023-03-17T13:56:03.242Z,1.70
2023-03-17T13:58:35.767Z,1.88
2023-03-17T14:01:07.477Z,1.70
2023-03-17T14:03:51.114Z,2.00
2023-03-17T14:06:24.536Z,1.92
2023-03-17T14:09:00.675Z,2.30
2023-03-17T14:11:33.764Z,1.60
2023-03-17T14:14:41.018Z,1.80
2023-03-17T14:17:23.063Z,1.67
2023-03-17T14:20:25.025Z,1.70
2023-03-17T14:23:04.430Z,1.80
2023-03-17T14:25:38.814Z,2.00
2023-03-17T14:28:16.712Z,2.10
2023-03-17T14:30:55.577Z,1.77
2023-03-17T14:33:38.293Z,1.80
2023-03-17T14:36:14.244Z,1.98
2023-03-17T14:38:54.191Z,1.77
2023-03-17T14:41:27.505Z,2.00
2023-03-17T14:44:00.944Z,1.70
2023-03-17T14:46:38.829Z,1.67
2023-03-17T14:49:20.897Z,1.60
2023-03-17T14:51:58.303Z,1.85
2023-03-17T14:54:31.759Z,1.92
2023-03-17T14:57:08.792Z,2.00
2023-03-17T14:59:43.272Z,1.65
2023-03-17T15:02:28.603Z,1.80
2023-03-17T15:05:26.476Z,1.67
2023-03-17T15:07:54.444Z,1.52
2023-03-17T15:10:34.444Z,2.03
2023-03-17T15:13:06.422Z,1.95
2023-03-17T15:15:39.870Z,1.60
2023-03-17T15:18:15.451Z,1.90
2023-03-17T15:20:45.237Z,2.00
2023-03-17T15:23:20.480Z,1.90
2023-03-17T15:25:57.148Z,1.80
2023-03-17T15:28:31.740Z,1.98
2023-03-17T15:31:12.768Z,1.90
2023-03-17T15:33:43.168Z,1.70
2023-03-17T15:36:31.226Z,1.88
2023-03-17T15:39:00.602Z,1.73
2023-03-17T15:41:27.867Z,1.70
2023-03-17T15:43:55.681Z,1.80
2023-03-17T15:46:27.906Z,1.60
2023-03-17T15:48:55.305Z,1.80
2023-03-17T15:51:22.615Z,1.80
2023-03-17T15:53:49.708Z,1.65
2023-03-17T15:56:20.433Z,1.90
2023-03-17T15:58:53.157Z,1.60
2023-03-17T16:01:21.518Z,1.85
2023-03-17T16:03:49.621Z,1.70
2023-03-17T16:06:22.605Z,1.40
2023-03-17T16:08:50.422Z,1.70
2023-03-17T16:11:28.586Z,1.50
2023-03-17T16:13:58.272Z,1.50
2023-03-17T16:16:38.828Z,1.50
2023-03-17T16:19:21.048Z,1.40
2023-03-17T16:21:49.095Z,1.48
2023-03-17T16:24:20.531Z,1.30
2023-03-17T16:26:48.080Z,1.40
2023-03-17T16:29:17.683Z,1.50
2023-03-17T16:31:49.417Z,1.40
2023-03-17T16:34:19.209Z,1.33
2023-03-17T16:36:46.560Z,1.33
2023-03-17T16:39:24.077Z,1.40
2023-03-17T16:41:52.067Z,1.25
2023-03-17T16:44:21.255Z,1.42
2023-03-17T16:46:49.443Z,1.58
2023-03-17T16:49:19.854Z,1.50
2023-03-17T16:51:49.442Z,1.42
2023-03-17T16:54:17.622Z,1.70
2023-03-17T16:56:45.652Z,1.40
2023-03-17T16:59:24.582Z,1.50
2023-03-17T17:01:55.556Z,1.30
2023-03-17T17:04:24.294Z,1.50
2023-03-17T17:06:51.277Z,1.50
2023-03-17T17:09:20.354Z,1.40
2023-03-17T17:11:48.176Z,1.35
2023-03-17T17:14:15.848Z,1.58
2023-03-17T17:16:43.285Z,1.60
2023-03-17T17:19:16.745Z,1.10
2023-03-17T17:21:44.950Z,1.30
2023-03-17T17:24:13.686Z,1.30
2023-03-17T17:26:42.063Z,1.65
2023-03-17T17:29:09.073Z,1.60
2023-03-17T17:31:36.378Z,1.70
2023-03-17T17:34:03.331Z,1.33
2023-03-17T17:36:31.002Z,1.50
2023-03-17T17:38:57.924Z,1.20
2023-03-17T17:41:24.972Z,1.50
2023-03-17T17:43:53.671Z,1.30
2023-03-17T17:46:23.078Z,1.42
2023-03-17T17:48:50.834Z,1.20
2023-03-17T17:51:17.846Z,1.48
2023-03-17T17:53:45.894Z,1.25
2023-03-17T17:56:18.146Z,1.30
2023-03-17T17:58:45.892Z,1.48
2023-03-17T18:01:16.811Z,1.40
2023-03-17T18:03:43.961Z,1.30
2023-03-17T18:06:13.143Z,1.67
2023-03-17T18:08:44.304Z,1.45
2023-03-17T18:11:12.168Z,1.50
2023-03-17T18:13:40.401Z,1.90
2023-03-17T18:16:10.034Z,1.45
2023-03-17T18:18:41.645Z,1.58
2023-03-17T18:21:09.805Z,1.80
2023-03-17T18:23:36.952Z,1.40
2023-03-17T18:26:06.204Z,1.60
2023-03-17T18:28:34.959Z,1.55
2023-03-17T18:31:26.134Z,1.33
2023-03-17T18:34:06.450Z,1.80
2023-03-17T18:36:34.423Z,1.40
2023-03-17T18:39:01.767Z,1.50
2023-03-17T18:41:29.137Z,1.80
2023-03-17T18:43:56.235Z,1.50
2023-03-17T18:46:23.320Z,1.50
2023-03-17T18:48:51.007Z,1.70
2023-03-17T18:51:18.269Z,1.77
2023-03-17T18:53:46.037Z,1.70
2023-03-17T18:56:13.485Z,2.03
2023-03-17T18:58:42.997Z,1.70
2023-03-17T19:01:10.168Z,1.57
2023-03-17T19:03:37.276Z,1.77
2023-03-17T19:06:11.199Z,1.80
2023-03-17T19:08:38.342Z,1.70
2023-03-17T19:11:10.774Z,1.67
2023-03-17T19:13:38.847Z,1.50
2023-03-17T19:16:10.667Z,1.90
2023-03-17T19:18:42.131Z,1.40
2023-03-17T19:21:11.610Z,1.52
2023-03-17T19:23:40.130Z,1.80
2023-03-17T19:26:10.472Z,1.50
2023-03-17T19:28:37.971Z,1.70
2023-03-17T19:31:05.078Z,1.60
2023-03-17T19:33:32.825Z,1.50
2023-03-17T19:36:02.682Z,1.70
2023-03-17T19:38:29.960Z,1.63
2023-03-17T19:40:57.130Z,1.90
2023-03-17T19:43:39.431Z,1.73
2023-03-17T19:46:08.148Z,1.63
2023-03-17T19:48:36.520Z,1.53
2023-03-17T19:51:04.462Z,1.77
2023-03-17T19:53:31.733Z,2.00
2023-03-17T19:55:58.808Z,1.70
2023-03-17T19:58:25.950Z,1.70
2023-03-17T20:00:53.081Z,1.60
2023-03-17T20:03:20.160Z,1.80
2023-03-17T20:05:47.407Z,1.80
2023-03-17T20:08:16.579Z,1.50
2023-03-17T20:10:43.625Z,1.70
2023-03-17T20:13:10.846Z,1.60
2023-03-17T20:15:38.293Z,1.70
2023-03-17T20:18:05.558Z,1.92
2023-03-17T20:20:32.779Z,1.67
2023-03-17T20:22:59.936Z,1.83
2023-03-17T20:25:27.986Z,1.58
2023-03-17T20:27:55.088Z,1.77
2023-03-17T20:30:23.635Z,1.90
2023-03-17T20:32:51.537Z,1.50
2023-03-17T20:35:18.837Z,1.77
2023-03-17T20:37:45.984Z,2.10
2023-03-17T20:40:13.941Z,2.08
2023-03-17T20:42:43.272Z,2.80
2023-03-17T20:45:10.465Z,2.43
2023-03-17T20:47:37.663Z,2.10
2023-03-17T20:50:06.393Z,2.50
2023-03-17T20:52:33.478Z,2.60
2023-03-17T20:55:00.746Z,2.50
2023-03-17T20:57:28.635Z,2.80
2023-03-17T20:59:56.081Z,2.40
2023-03-17T21:02:24.060Z,2.47
2023-03-17T21:04:51.663Z,2.97
2023-03-17T21:07:22.350Z,3.00
2023-03-17T21:09:49.409Z,3.10
2023-03-17T21:12:20.100Z,2.93
2023-03-17T21:14:50.669Z,3.10
2023-03-17T21:17:18.470Z,3.10
2023-03-17T21:19:45.919Z,3.47
2023-03-17T21:22:13.681Z,3.40
2023-03-17T21:24:41.446Z,3.50
2023-03-17T21:27:11.240Z,3.73
2023-03-17T21:29:39.949Z,3.20
2023-03-17T21:32:08.546Z,3.57
2023-03-17T21:34:37.152Z,3.30
2023-03-17T21:37:04.800Z,3.57
2023-03-17T21:39:32.780Z,3.80
2023-03-17T21:42:01.331Z,3.60
2023-03-17T21:44:28.715Z,3.53
2023-03-17T21:46:56.986Z,3.53
2023-03-17T21:49:24.935Z,4.20
2023-03-17T21:51:53.186Z,4.00
2023-03-17T21:54:21.686Z,3.70
2023-03-17T21:56:49.622Z,3.97
2023-03-17T21:59:18.521Z,3.90
2023-03-17T22:01:45.473Z,4.70
2023-03-17T22:04:14.261Z,4.77
2023-03-17T22:06:42.200Z,4.17
2023-03-17T22:09:11.146Z,4.00
2023-03-17T22:11:38.105Z,4.20
2023-03-17T22:14:05.189Z,3.80
2023-03-17T22:16:32.712Z,3.87
2023-03-17T22:19:00.137Z,4.43
2023-03-17T22:21:28.857Z,4.50
2023-03-17T22:23:55.993Z,4.43
2023-03-17T22:26:23.456Z,4.10
2023-03-17T22:28:51.147Z,4.53
2023-03-17T22:31:28.162Z,4.20
2023-03-17T22:33:58.793Z,4.30
2023-03-17T22:36:26.900Z,4.27
2023-03-17T22:38:56.197Z,4.07
2023-03-17T22:41:29.923Z,4.33
2023-03-17T22:43:57.999Z,4.50
2023-03-17T22:46:25.527Z,4.70
2023-03-17T22:48:53.913Z,4.30
2023-03-17T22:51:24.835Z,4.00
2023-03-17T22:53:52.790Z,4.23
2023-03-17T22:56:20.516Z,4.80
2023-03-17T22:58:48.708Z,4.00
2023-03-17T23:01:18.237Z,4.17
2023-03-17T23:03:47.121Z,4.30
2023-03-17T23:06:15.124Z,4.40
2023-03-17T23:08:45.999Z,4.07
2023-03-17T23:11:18.423Z,4.20
2023-03-17T23:13:47.558Z,4.40
2023-03-17T23:16:15.844Z,4.17
2023-03-17T23:18:46.798Z,4.20
2023-03-17T23:21:28.729Z,3.97
2023-03-17T23:23:57.131Z,3.90
2023-03-17T23:26:24.362Z,4.30
2023-03-17T23:28:52.048Z,3.67
2023-03-17T23:31:20.475Z,4.07
2023-03-17T23:33:48.422Z,4.47
2023-03-17T23:36:17.224Z,4.20
2023-03-17T23:38:45.640Z,3.93
2023-03-17T23:41:14.691Z,3.90
2023-03-17T23:43:42.951Z,4.27
2023-03-17T23:46:10.176Z,4.17
2023-03-17T23:48:38.836Z,4.10
2023-03-17T23:51:10.038Z,4.00
2023-03-17T23:53:39.541Z,4.37
2023-03-17T23:56:08.015Z,3.83
2023-03-17T23:58:36.284Z,4.03
